메인 페이지
METAR-TAF:

METAR-TAF

공항 :

로스토프나도누, 러시아

위도: 47-29-38N, 경도: 039-55-29E, 고도: 65m

현재 날씨관측

예보는 30분 전, 09:00시(UTC)에 발표되었습니다.
남서14kt
온도 21°C
습도 53%
기압 1011 hPa
시정 10km 이상
구름 보통

METAR: URRP 040900Z 23007MPS 9999 SCT/// 21/11 Q1011 R23/CLRD70 TEMPO 23009G14MPS RMK QFE750/1001

시각: 13:30 (09:30 UTC)

예보

예보는 1 시간 30분 전, 08:00시(UTC)에 발표되었습니다.
예보 대상 시간: 04일 09시부터 05일 09시까지 (UTC)
서남서14kt, 순간 최대 풍속 25kt
시정 10km 이상
고도 3000ft 상공 구름 보통, 적란운.
일시적
04일 12시부터 05일 06시까지 (UTC)
남서6kt, 순간 최대 풍속 19kt
시정: 6000m
고도 1600ft 상공 구름 보통
고도 2000ft 상공 구름 보통, 적란운.
약한소나기
확률 40% :
일시적
04일 12시부터 05일 06시까지 (UTC)
시정: 3000m
고도 1100ft 상공 구름 보통
고도 2000ft 상공 구름 보통, 적란운.
뇌우, 약한비

TAF: URRP 040800Z 0409/0509 25007G13MPS 9999 SCT030CB TX23/0412Z TN13/0502Z TEMPO 0412/0506 23003G10MPS 6000 -SHRA SCT016 SCT020CB PROB40 TEMPO 0412/0506 3000 -TSRA SCT011 SCT020CB

4,000개 이상의 공항 관측 자료 및 예보 (METAR 및 TAF 보고).

지도상에서 검색 가능한 기상관측소가 노란 점과 빨간 점으로 표시되어 있습니다.

기상관측소 명을 보려면 표시 위로 마우스를 이동하세요.

날씨 관측과 예보를 보려면 클릭하세요.

지도 변경 : 확대하려면 엑스 표시가 있는 녹색 버튼, 축소하려면 빼기 표시가 있는 녹색 버튼, 다음 페이지의 지도를 보려면 녹색 화살표를 클릭하세요.


METAR-TAF: